sensor_id;sensor_type;location;lat;lon;timestamp;pressure;altitude;pressure_sealevel;temperature;humidity
55550;BME280;41397;49.972;18.944;2023-11-21T00:02:07;101079.87;;;11.18;87.63
55550;BME280;41397;49.972;18.944;2023-11-21T00:05:09;101076.40;;;11.16;87.57
55550;BME280;41397;49.972;18.944;2023-11-21T00:08:11;101075.40;;;11.17;87.41
55550;BME280;41397;49.972;18.944;2023-11-21T00:11:12;101078.89;;;11.19;87.25
55550;BME280;41397;49.972;18.944;2023-11-21T00:14:14;101088.08;;;11.18;87.01
55550;BME280;41397;49.972;18.944;2023-11-21T00:17:18;101086.96;;;11.21;87.04
55550;BME280;41397;49.972;18.944;2023-11-21T00:20:20;101096.18;;;11.20;87.19
55550;BME280;41397;49.972;18.944;2023-11-21T00:23:22;101097.81;;;11.22;87.04
55550;BME280;41397;49.972;18.944;2023-11-21T00:26:24;101100.55;;;11.22;87.02
55550;BME280;41397;49.972;18.944;2023-11-21T00:29:25;101106.88;;;11.23;86.82
55550;BME280;41397;49.972;18.944;2023-11-21T00:32:27;101107.02;;;11.21;86.98
55550;BME280;41397;49.972;18.944;2023-11-21T00:35:28;101116.10;;;11.22;86.60
55550;BME280;41397;49.972;18.944;2023-11-21T00:38:30;101108.75;;;11.22;86.84
55550;BME280;41397;49.972;18.944;2023-11-21T00:41:31;101118.94;;;11.20;86.50
55550;BME280;41397;49.972;18.944;2023-11-21T00:44:34;101113.71;;;11.17;86.73
55550;BME280;41397;49.972;18.944;2023-11-21T00:47:38;101101.66;;;11.20;86.56
55550;BME280;41397;49.972;18.944;2023-11-21T00:50:40;101106.13;;;11.21;86.71
55550;BME280;41397;49.972;18.944;2023-11-21T00:53:41;101107.89;;;11.22;86.58
55550;BME280;41397;49.972;18.944;2023-11-21T00:56:43;101111.60;;;11.21;86.53
55550;BME280;41397;49.972;18.944;2023-11-21T00:59:44;101106.13;;;11.21;86.37
55550;BME280;41397;49.972;18.944;2023-11-21T01:02:46;101109.76;;;11.21;86.40
55550;BME280;41397;49.972;18.944;2023-11-21T01:05:49;101111.35;;;11.24;86.26
55550;BME280;41397;49.972;18.944;2023-11-21T01:08:51;101102.66;;;11.19;86.10
55550;BME280;41397;49.972;18.944;2023-11-21T01:11:52;101107.02;;;11.21;86.05
55550;BME280;41397;49.972;18.944;2023-11-21T01:14:54;101106.13;;;11.21;86.15
55550;BME280;41397;49.972;18.944;2023-11-21T01:17:55;101110.63;;;11.22;86.02
55550;BME280;41397;49.972;18.944;2023-11-21T01:20:58;101109.00;;;11.19;85.87
55550;BME280;41397;49.972;18.944;2023-11-21T01:24:01;101110.63;;;11.22;85.91
55550;BME280;41397;49.972;18.944;2023-11-21T01:27:03;101115.23;;;11.21;85.61
55550;BME280;41397;49.972;18.944;2023-11-21T01:30:06;101107.99;;;11.20;85.48
55550;BME280;41397;49.972;18.944;2023-11-21T01:33:11;101118.94;;;11.20;85.59
55550;BME280;41397;49.972;18.944;2023-11-21T01:36:12;101116.20;;;11.20;85.41
55550;BME280;41397;49.972;18.944;2023-11-21T01:39:14;101123.55;;;11.20;85.57
55550;BME280;41397;49.972;18.944;2023-11-21T01:42:23;101118.18;;;11.18;84.99
55550;BME280;41397;49.972;18.944;2023-11-21T01:45:25;101119.30;;;11.16;84.99
55550;BME280;41397;49.972;18.944;2023-11-21T01:48:33;101112.96;;;11.15;85.12
55550;BME280;41397;49.972;18.944;2023-11-21T01:51:35;101113.71;;;11.17;85.12
55550;BME280;41397;49.972;18.944;2023-11-21T01:54:37;101115.59;;;11.17;84.80
55550;BME280;41397;49.972;18.944;2023-11-21T01:57:39;101108.24;;;11.17;84.73
55550;BME280;41397;49.972;18.944;2023-11-21T02:00:40;101105.75;;;11.14;84.52
55550;BME280;41397;49.972;18.944;2023-11-21T02:03:42;101112.96;;;11.15;84.42
55550;BME280;41397;49.972;18.944;2023-11-21T02:06:43;101110.36;;;11.14;84.27
55550;BME280;41397;49.972;18.944;2023-11-21T02:09:45;101114.07;;;11.13;84.17
55550;BME280;41397;49.972;18.944;2023-11-21T02:12:49;101109.60;;;11.11;84.00
55550;BME280;41397;49.972;18.944;2023-11-21T02:15:53;101108.73;;;11.11;83.96
55550;BME280;41397;49.972;18.944;2023-11-21T02:18:56;101112.44;;;11.10;83.58
55550;BME280;41397;49.972;18.944;2023-11-21T02:21:59;101101.63;;;11.08;83.79
55550;BME280;41397;49.972;18.944;2023-11-21T02:25:05;101107.98;;;11.09;83.59
55550;BME280;41397;49.972;18.944;2023-11-21T02:28:14;101119.03;;;11.07;83.84
55550;BME280;41397;49.972;18.944;2023-11-21T02:31:22;101114.45;;;11.08;83.66
55550;BME280;41397;49.972;18.944;2023-11-21T02:34:24;101113.70;;;11.06;83.74
55550;BME280;41397;49.972;18.944;2023-11-21T02:37:28;101120.80;;;11.08;84.08
55550;BME280;41397;49.972;18.944;2023-11-21T02:40:29;101128.39;;;11.05;83.86
55550;BME280;41397;49.972;18.944;2023-11-21T02:43:30;101144.80;;;11.05;83.86
55550;BME280;41397;49.972;18.944;2023-11-21T02:46:33;101140.20;;;11.05;83.79
55550;BME280;41397;49.972;18.944;2023-11-21T02:49:34;101144.67;;;11.06;83.92
55550;BME280;41397;49.972;18.944;2023-11-21T02:52:37;101150.14;;;11.06;83.95
55550;BME280;41397;49.972;18.944;2023-11-21T02:55:38;101151.02;;;11.07;83.71
55550;BME280;41397;49.972;18.944;2023-11-21T02:58:44;101149.15;;;11.07;83.73
55550;BME280;41397;49.972;18.944;2023-11-21T03:01:46;101140.05;;;11.07;83.67
55550;BME280;41397;49.972;18.944;2023-11-21T03:04:47;101143.66;;;11.07;83.89
55550;BME280;41397;49.972;18.944;2023-11-21T03:07:50;101140.82;;;11.09;83.66
55550;BME280;41397;49.972;18.944;2023-11-21T03:10:52;101144.17;;;11.13;83.65
55550;BME280;41397;49.972;18.944;2023-11-21T03:13:53;101139.70;;;11.11;83.68
55550;BME280;41397;49.972;18.944;2023-11-21T03:16:54;101140.71;;;11.10;83.38
55550;BME280;41397;49.972;18.944;2023-11-21T03:19:56;101142.55;;;11.10;83.47
55550;BME280;41397;49.972;18.944;2023-11-21T03:22:58;101139.70;;;11.11;83.24
55550;BME280;41397;49.972;18.944;2023-11-21T03:26:00;101135.11;;;11.12;83.19
55550;BME280;41397;49.972;18.944;2023-11-21T03:29:02;101133.48;;;11.09;83.23
55550;BME280;41397;49.972;18.944;2023-11-21T03:32:05;101130.88;;;11.08;83.13
55550;BME280;41397;49.972;18.944;2023-11-21T03:35:08;101139.09;;;11.08;82.95
55550;BME280;41397;49.972;18.944;2023-11-21T03:38:10;101129.98;;;11.07;82.94
55550;BME280;41397;49.972;18.944;2023-11-21T03:41:11;101139.20;;;11.06;82.84
55550;BME280;41397;49.972;18.944;2023-11-21T03:44:13;101133.63;;;11.08;83.06
55550;BME280;41397;49.972;18.944;2023-11-21T03:47:14;101133.63;;;11.08;82.71
55550;BME280;41397;49.972;18.944;2023-11-21T03:50:16;101133.63;;;11.08;82.97
55550;BME280;41397;49.972;18.944;2023-11-21T03:53:17;101138.19;;;11.07;82.76
55550;BME280;41397;49.972;18.944;2023-11-21T03:56:19;101137.32;;;11.07;82.47
55550;BME280;41397;49.972;18.944;2023-11-21T03:59:22;101140.05;;;11.07;82.52
55550;BME280;41397;49.972;18.944;2023-11-21T04:02:25;101139.95;;;11.08;82.67
55550;BME280;41397;49.972;18.944;2023-11-21T04:05:29;101140.93;;;11.07;82.58
55550;BME280;41397;49.972;18.944;2023-11-21T04:08:30;101135.35;;;11.09;82.56
55550;BME280;41397;49.972;18.944;2023-11-21T04:11:34;101129.98;;;11.07;82.70
55550;BME280;41397;49.972;18.944;2023-11-21T04:14:35;101132.72;;;11.07;82.46
55550;BME280;41397;49.972;18.944;2023-11-21T04:17:37;101124.65;;;11.06;82.47
55550;BME280;41397;49.972;18.944;2023-11-21T04:20:38;101130.88;;;11.08;82.66
55550;BME280;41397;49.972;18.944;2023-11-21T04:23:39;101136.46;;;11.06;82.18
55550;BME280;41397;49.972;18.944;2023-11-21T04:26:41;101126.38;;;11.07;82.41
55550;BME280;41397;49.972;18.944;2023-11-21T04:29:42;101141.93;;;11.06;82.07
55550;BME280;41397;49.972;18.944;2023-11-21T04:32:44;101132.85;;;11.06;82.02
55550;BME280;41397;49.972;18.944;2023-11-21T04:35:46;101137.46;;;11.05;81.92
55550;BME280;41397;49.972;18.944;2023-11-21T04:38:47;101134.73;;;11.05;81.95
55550;BME280;41397;49.972;18.944;2023-11-21T04:41:48;101143.91;;;11.04;81.77
55550;BME280;41397;49.972;18.944;2023-11-21T04:44:50;101143.66;;;11.07;82.02
55550;BME280;41397;49.972;18.944;2023-11-21T04:47:53;101146.64;;;11.04;81.59
55550;BME280;41397;49.972;18.944;2023-11-21T04:50:54;101139.44;;;11.03;81.57
55550;BME280;41397;49.972;18.944;2023-11-21T04:53:55;101140.55;;;11.01;81.37
55550;BME280;41397;49.972;18.944;2023-11-21T04:56:57;101145.67;;;11.05;81.56
55550;BME280;41397;49.972;18.944;2023-11-21T05:00:01;101141.07;;;11.06;81.64
55550;BME280;41397;49.972;18.944;2023-11-21T05:03:06;101148.76;;;11.01;81.43
55550;BME280;41397;49.972;18.944;2023-11-21T05:06:11;101149.52;;;11.03;81.53
55550;BME280;41397;49.972;18.944;2023-11-21T05:09:12;101155.85;;;11.03;81.25
55550;BME280;41397;49.972;18.944;2023-11-21T05:12:13;101158.60;;;11.03;81.47
55550;BME280;41397;49.972;18.944;2023-11-21T05:15:16;101172.38;;;11.02;81.17
55550;BME280;41397;49.972;18.944;2023-11-21T05:18:21;101176.02;;;11.02;81.48
55550;BME280;41397;49.972;18.944;2023-11-21T05:21:29;101187.83;;;11.03;81.33
55550;BME280;41397;49.972;18.944;2023-11-21T05:24:36;101194.17;;;11.03;81.20
55550;BME280;41397;49.972;18.944;2023-11-21T05:27:40;101197.16;;;11.00;81.11
55550;BME280;41397;49.972;18.944;2023-11-21T05:30:41;101202.87;;;10.97;80.97
55550;BME280;41397;49.972;18.944;2023-11-21T05:33:43;101206.48;;;10.98;81.12
55550;BME280;41397;49.972;18.944;2023-11-21T05:36:44;101212.57;;;11.01;81.42
55550;BME280;41397;49.972;18.944;2023-11-21T05:39:46;101210.84;;;11.00;81.36
55550;BME280;41397;49.972;18.944;2023-11-21T05:42:48;101217.27;;;10.99;81.27
55550;BME280;41397;49.972;18.944;2023-11-21T05:45:49;101210.94;;;10.99;81.19
55550;BME280;41397;49.972;18.944;2023-11-21T05:48:50;101208.86;;;11.02;81.23
55550;BME280;41397;49.972;18.944;2023-11-21T05:51:53;101220.77;;;11.01;81.10
55550;BME280;41397;49.972;18.944;2023-11-21T05:54:55;101217.17;;;11.01;81.07
55550;BME280;41397;49.972;18.944;2023-11-21T05:57:56;101215.21;;;11.03;81.50
55550;BME280;41397;49.972;18.944;2023-11-21T06:01:00;101220.55;;;11.04;81.36
55550;BME280;41397;49.972;18.944;2023-11-21T06:04:01;101214.34;;;11.02;81.36
55550;BME280;41397;49.972;18.944;2023-11-21T06:07:04;101225.04;;;11.05;81.24
55550;BME280;41397;49.972;18.944;2023-11-21T06:10:07;101226.91;;;11.05;81.13
55550;BME280;41397;49.972;18.944;2023-11-21T06:13:19;101230.77;;;11.02;81.21
55550;BME280;41397;49.972;18.944;2023-11-21T06:16:25;101229.65;;;11.05;81.56
55550;BME280;41397;49.972;18.944;2023-11-21T06:19:27;101223.18;;;11.06;81.60
55550;BME280;41397;49.972;18.944;2023-11-21T06:22:28;101225.77;;;11.07;81.38
55550;BME280;41397;49.972;18.944;2023-11-21T06:25:31;101233.26;;;11.05;81.33
55550;BME280;41397;49.972;18.944;2023-11-21T06:28:37;101227.89;;;11.04;81.08
55550;BME280;41397;49.972;18.944;2023-11-21T06:31:38;101237.96;;;11.03;80.94
55550;BME280;41397;49.972;18.944;2023-11-21T06:34:41;101246.08;;;11.05;81.03
55550;BME280;41397;49.972;18.944;2023-11-21T06:37:43;101239.94;;;11.01;80.72
55550;BME280;41397;49.972;18.944;2023-11-21T06:40:53;101248.28;;;11.00;81.04
55550;BME280;41397;49.972;18.944;2023-11-21T06:43:56;101248.04;;;11.03;81.04
55550;BME280;41397;49.972;18.944;2023-11-21T06:46:59;101241.57;;;11.04;81.18
55550;BME280;41397;49.972;18.944;2023-11-21T06:50:01;101250.78;;;11.03;81.03
55550;BME280;41397;49.972;18.944;2023-11-21T06:53:02;101256.26;;;11.03;80.96
55550;BME280;41397;49.972;18.944;2023-11-21T06:56:15;101260.63;;;11.05;81.26
55550;BME280;41397;49.972;18.944;2023-11-21T06:59:17;101257.99;;;11.04;81.07
55550;BME280;41397;49.972;18.944;2023-11-21T07:02:18;101257.88;;;11.05;81.26
55550;BME280;41397;49.972;18.944;2023-11-21T07:05:21;101261.50;;;11.06;80.98
55550;BME280;41397;49.972;18.944;2023-11-21T07:08:23;101260.63;;;11.05;81.01
55550;BME280;41397;49.972;18.944;2023-11-21T07:11:24;101253.38;;;11.04;81.30
55550;BME280;41397;49.972;18.944;2023-11-21T07:14:26;101260.14;;;11.11;81.19
55550;BME280;41397;49.972;18.944;2023-11-21T07:17:27;101262.88;;;11.11;81.48
55550;BME280;41397;49.972;18.944;2023-11-21T07:20:28;101270.86;;;11.15;81.08
55550;BME280;41397;49.972;18.944;2023-11-21T07:23:31;101268.88;;;11.17;81.49
55550;BME280;41397;49.972;18.944;2023-11-21T07:26:33;101265.91;;;11.20;81.62
55550;BME280;41397;49.972;18.944;2023-11-21T07:29:34;101274.74;;;11.23;81.48
55550;BME280;41397;49.972;18.944;2023-11-21T07:32:36;101274.40;;;11.28;81.61
55550;BME280;41397;49.972;18.944;2023-11-21T07:35:40;101268.82;;;11.29;81.25
55550;BME280;41397;49.972;18.944;2023-11-21T07:38:42;101266.82;;;11.31;81.10
55550;BME280;41397;49.972;18.944;2023-11-21T07:41:43;101275.69;;;11.35;81.03
55550;BME280;41397;49.972;18.944;2023-11-21T07:44:55;101278.18;;;11.38;81.02
55550;BME280;41397;49.972;18.944;2023-11-21T07:47:57;101286.16;;;11.41;81.06
55550;BME280;41397;49.972;18.944;2023-11-21T07:51:01;101282.41;;;11.42;81.10
55550;BME280;41397;49.972;18.944;2023-11-21T07:54:05;101282.41;;;11.42;80.68
55550;BME280;41397;49.972;18.944;2023-11-21T07:57:06;101285.05;;;11.44;80.62
55550;BME280;41397;49.972;18.944;2023-11-21T08:00:09;101278.70;;;11.43;80.64
55550;BME280;41397;49.972;18.944;2023-11-21T08:03:13;101278.46;;;11.46;80.98
55550;BME280;41397;49.972;18.944;2023-11-21T08:06:15;101278.33;;;11.48;80.87
55550;BME280;41397;49.972;18.944;2023-11-21T08:09:16;101291.91;;;11.49;80.73
55550;BME280;41397;49.972;18.944;2023-11-21T08:12:18;101290.81;;;11.52;81.00
55550;BME280;41397;49.972;18.944;2023-11-21T08:15:21;101287.06;;;11.53;80.92
55550;BME280;41397;49.972;18.944;2023-11-21T08:18:22;101294.79;;;11.59;80.82
55550;BME280;41397;49.972;18.944;2023-11-21T08:21:24;101300.17;;;11.61;80.41
55550;BME280;41397;49.972;18.944;2023-11-21T08:24:25;101299.82;;;11.65;80.40
55550;BME280;41397;49.972;18.944;2023-11-21T08:27:28;101305.15;;;11.67;80.24
55550;BME280;41397;49.972;18.944;2023-11-21T08:30:29;101309.17;;;11.74;80.23
55550;BME280;41397;49.972;18.944;2023-11-21T08:33:31;101308.93;;;11.77;80.11
55550;BME280;41397;49.972;18.944;2023-11-21T08:36:33;101305.83;;;11.82;80.34
55550;BME280;41397;49.972;18.944;2023-11-21T08:39:36;101303.72;;;11.85;80.07
55550;BME280;41397;49.972;18.944;2023-11-21T08:42:38;101310.96;;;11.86;79.80
55550;BME280;41397;49.972;18.944;2023-11-21T08:45:39;101318.32;;;11.86;79.64
55550;BME280;41397;49.972;18.944;2023-11-21T08:48:41;101326.55;;;11.86;79.05
55550;BME280;41397;49.972;18.944;2023-11-21T08:51:44;101325.64;;;11.85;79.07
55550;BME280;41397;49.972;18.944;2023-11-21T08:54:46;101329.39;;;11.84;78.96
55550;BME280;41397;49.972;18.944;2023-11-21T08:57:48;101322.39;;;11.80;78.77
55550;BME280;41397;49.972;18.944;2023-11-21T09:00:51;101333.97;;;11.84;79.04
55550;BME280;41397;49.972;18.944;2023-11-21T09:03:52;101330.35;;;11.83;78.87
55550;BME280;41397;49.972;18.944;2023-11-21T09:06:54;101335.73;;;11.85;78.97
55550;BME280;41397;49.972;18.944;2023-11-21T09:09:55;101324.02;;;11.83;79.15
55550;BME280;41397;49.972;18.944;2023-11-21T09:12:57;101331.92;;;11.87;79.40
55550;BME280;41397;49.972;18.944;2023-11-21T09:15:59;101323.70;;;11.87;79.30
55550;BME280;41397;49.972;18.944;2023-11-21T09:19:01;101326.30;;;11.89;79.26
55550;BME280;41397;49.972;18.944;2023-11-21T09:22:06;101316.20;;;11.89;79.43
55550;BME280;41397;49.972;18.944;2023-11-21T09:25:08;101314.22;;;11.91;79.18
55550;BME280;41397;49.972;18.944;2023-11-21T09:28:10;101324.93;;;11.94;79.09
55550;BME280;41397;49.972;18.944;2023-11-21T09:31:12;101326.56;;;11.97;79.19
55550;BME280;41397;49.972;18.944;2023-11-21T09:34:17;101337.42;;;11.98;78.83
55550;BME280;41397;49.972;18.944;2023-11-21T09:37:25;101326.56;;;11.97;78.82
55550;BME280;41397;49.972;18.944;2023-11-21T09:40:28;101321.95;;;11.97;79.12
55550;BME280;41397;49.972;18.944;2023-11-21T09:43:32;101330.93;;;11.99;79.06
55550;BME280;41397;49.972;18.944;2023-11-21T09:46:35;101329.20;;;11.98;78.75
55550;BME280;41397;49.972;18.944;2023-11-21T09:49:40;101329.06;;;12.00;78.78
55550;BME280;41397;49.972;18.944;2023-11-21T09:52:53;101327.95;;;12.03;78.68
55550;BME280;41397;49.972;18.944;2023-11-21T09:55:56;101332.30;;;12.05;78.35
55550;BME280;41397;49.972;18.944;2023-11-21T09:58:58;101327.70;;;12.06;78.78
55550;BME280;41397;49.972;18.944;2023-11-21T10:02:09;101329.32;;;12.08;78.68
55550;BME280;41397;49.972;18.944;2023-11-21T10:05:14;101326.47;;;12.10;78.87
55550;BME280;41397;49.972;18.944;2023-11-21T10:08:20;101322.62;;;12.12;78.70
55550;BME280;41397;49.972;18.944;2023-11-21T10:11:27;101326.84;;;12.16;78.78
55550;BME280;41397;49.972;18.944;2023-11-21T10:14:29;101329.12;;;12.23;78.92
55550;BME280;41397;49.972;18.944;2023-11-21T10:17:32;101332.73;;;12.23;78.32
55550;BME280;41397;49.972;18.944;2023-11-21T10:20:44;101333.48;;;12.25;77.79
55550;BME280;41397;49.972;18.944;2023-11-21T10:23:57;101333.34;;;12.27;77.43
55550;BME280;41397;49.972;18.944;2023-11-21T10:26:58;101324.24;;;12.26;77.30
55550;BME280;41397;49.972;18.944;2023-11-21T10:30:04;101330.24;;;12.31;77.53
55550;BME280;41397;49.972;18.944;2023-11-21T10:33:06;101327.36;;;12.33;77.57
55550;BME280;41397;49.972;18.944;2023-11-21T10:36:09;101325.26;;;12.36;77.58
55550;BME280;41397;49.972;18.944;2023-11-21T10:39:17;101320.49;;;12.38;77.52
55550;BME280;41397;49.972;18.944;2023-11-21T10:42:19;101313.89;;;12.41;76.61
55550;BME280;41397;49.972;18.944;2023-11-21T10:45:21;101314.65;;;12.43;76.11
55550;BME280;41397;49.972;18.944;2023-11-21T10:48:25;101312.91;;;12.42;76.36
55550;BME280;41397;49.972;18.944;2023-11-21T10:51:26;101310.03;;;12.43;76.67
55550;BME280;41397;49.972;18.944;2023-11-21T10:54:27;101308.05;;;12.46;76.63
55550;BME280;41397;49.972;18.944;2023-11-21T10:57:29;101315.40;;;12.45;76.46
55550;BME280;41397;49.972;18.944;2023-11-21T11:00:34;101309.05;;;12.44;76.45
55550;BME280;41397;49.972;18.944;2023-11-21T11:03:43;101310.93;;;12.44;76.19
55550;BME280;41397;49.972;18.944;2023-11-21T11:06:54;101310.78;;;12.46;75.75
55550;BME280;41397;49.972;18.944;2023-11-21T11:09:58;101306.55;;;12.41;75.16
55550;BME280;41397;49.972;18.944;2023-11-21T11:13:01;101309.30;;;12.41;75.69
55550;BME280;41397;49.972;18.944;2023-11-21T11:16:03;101312.41;;;12.37;75.13
55550;BME280;41397;49.972;18.944;2023-11-21T11:19:11;101316.38;;;12.33;74.68
55550;BME280;41397;49.972;18.944;2023-11-21T11:22:24;101313.79;;;12.31;75.15
55550;BME280;41397;49.972;18.944;2023-11-21T11:28:47;101315.27;;;12.24;74.26
55550;BME280;41397;49.972;18.944;2023-11-21T11:35:32;101318.87;;;12.13;74.51
55550;BME280;41397;49.972;18.944;2023-11-21T11:38:22;101317.23;;;12.11;74.21
55550;BME280;41397;49.972;18.944;2023-11-21T11:41:31;101312.01;;;12.08;74.49
55550;BME280;41397;49.972;18.944;2023-11-21T11:47:57;101327.32;;;11.99;74.21
55550;BME280;41397;49.972;18.944;2023-11-21T11:54:12;101332.55;;;12.02;74.68
55550;BME280;41397;49.972;18.944;2023-11-21T11:57:14;101332.45;;;12.04;74.60
55550;BME280;41397;49.972;18.944;2023-11-21T12:03:31;101337.18;;;12.02;74.67
55550;BME280;41397;49.972;18.944;2023-11-21T12:06:34;101336.16;;;12.03;74.64
55550;BME280;41397;49.972;18.944;2023-11-21T12:09:37;101340.68;;;12.04;74.99
55550;BME280;41397;49.972;18.944;2023-11-21T12:12:42;101324.48;;;12.01;74.69
55550;BME280;41397;49.972;18.944;2023-11-21T12:15:45;101334.76;;;11.86;74.14
55550;BME280;41397;49.972;18.944;2023-11-21T12:18:47;101338.83;;;11.80;74.14
55550;BME280;41397;49.972;18.944;2023-11-21T12:21:48;101339.70;;;11.81;74.59
55550;BME280;41397;49.972;18.944;2023-11-21T12:24:50;101342.68;;;11.77;75.07
55550;BME280;41397;49.972;18.944;2023-11-21T12:27:52;101338.83;;;11.80;75.41
55550;BME280;41397;49.972;18.944;2023-11-21T12:30:54;101343.09;;;11.84;75.34
55550;BME280;41397;49.972;18.944;2023-11-21T12:33:57;101334.98;;;11.83;75.62
55550;BME280;41397;49.972;18.944;2023-11-21T12:36:59;101341.46;;;11.82;75.73
55550;BME280;41397;49.972;18.944;2023-11-21T12:40:00;101346.80;;;11.83;76.08
55550;BME280;41397;49.972;18.944;2023-11-21T12:43:02;101349.33;;;11.86;76.08
55550;BME280;41397;49.972;18.944;2023-11-21T12:46:06;101333.97;;;11.84;76.45
55550;BME280;41397;49.972;18.944;2023-11-21T12:49:11;101346.18;;;11.80;76.12
55550;BME280;41397;49.972;18.944;2023-11-21T12:52:39;101347.40;;;11.75;75.83
55550;BME280;41397;49.972;18.944;2023-11-21T12:55:41;101344.65;;;11.75;76.16
55550;BME280;41397;49.972;18.944;2023-11-21T12:58:45;101344.80;;;11.74;75.86
55550;BME280;41397;49.972;18.944;2023-11-21T13:01:54;101351.87;;;11.65;75.84
55550;BME280;41397;49.972;18.944;2023-11-21T13:05:05;101353.71;;;11.65;75.84
55550;BME280;41397;49.972;18.944;2023-11-21T13:08:17;101353.56;;;11.55;75.62
55550;BME280;41397;49.972;18.944;2023-11-21T13:11:23;101358.04;;;11.56;75.51
55550;BME280;41397;49.972;18.944;2023-11-21T13:14:31;101358.52;;;11.50;75.89
55550;BME280;41397;49.972;18.944;2023-11-21T13:17:33;101363.37;;;11.46;75.63
55550;BME280;41397;49.972;18.944;2023-11-21T13:20:37;101364.48;;;11.44;75.32
55550;BME280;41397;49.972;18.944;2023-11-21T13:23:39;101360.49;;;11.48;75.73
55550;BME280;41397;49.972;18.944;2023-11-21T13:26:42;101361.88;;;11.53;75.82
55550;BME280;41397;49.972;18.944;2023-11-21T13:29:46;101355.43;;;11.54;75.63
55550;BME280;41397;49.972;18.944;2023-11-21T13:32:48;101362.26;;;11.49;75.71
55550;BME280;41397;49.972;18.944;2023-11-21T13:35:52;101361.37;;;11.48;75.66
55550;BME280;41397;49.972;18.944;2023-11-21T13:38:54;101364.86;;;11.50;75.63
55550;BME280;41397;49.972;18.944;2023-11-21T13:41:55;101372.98;;;11.52;75.65
55550;BME280;41397;49.972;18.944;2023-11-21T13:44:57;101363.99;;;11.50;75.42
55550;BME280;41397;49.972;18.944;2023-11-21T13:47:59;101369.57;;;11.48;75.56
55550;BME280;41397;49.972;18.944;2023-11-21T13:51:00;101369.09;;;11.43;76.06
55550;BME280;41397;49.972;18.944;2023-11-21T13:54:14;101360.11;;;11.41;75.72
55550;BME280;41397;49.972;18.944;2023-11-21T13:57:16;101364.58;;;11.42;75.73
55550;BME280;41397;49.972;18.944;2023-11-21T14:00:19;101365.58;;;11.41;76.09
55550;BME280;41397;49.972;18.944;2023-11-21T14:03:38;101372.03;;;11.40;76.38
55550;BME280;41397;49.972;18.944;2023-11-21T14:06:50;101363.82;;;11.40;76.61
55550;BME280;41397;49.972;18.944;2023-11-21T14:09:55;101366.45;;;11.42;76.99
55550;BME280;41397;49.972;18.944;2023-11-21T14:12:57;101370.92;;;11.43;77.07
55550;BME280;41397;49.972;18.944;2023-11-21T14:16:00;101373.56;;;11.44;77.49
55550;BME280;41397;49.972;18.944;2023-11-21T14:19:09;101375.19;;;11.47;77.48
55550;BME280;41397;49.972;18.944;2023-11-21T14:22:18;101369.48;;;11.50;77.47
55550;BME280;41397;49.972;18.944;2023-11-21T14:25:21;101372.21;;;11.50;77.59
55550;BME280;41397;49.972;18.944;2023-11-21T14:28:23;101382.30;;;11.49;77.76
55550;BME280;41397;49.972;18.944;2023-11-21T14:31:26;101387.65;;;11.51;77.74
55550;BME280;41397;49.972;18.944;2023-11-21T14:34:36;101383.27;;;11.48;77.78
55550;BME280;41397;49.972;18.944;2023-11-21T14:37:39;101390.27;;;11.52;77.63
55550;BME280;41397;49.972;18.944;2023-11-21T14:40:40;101383.06;;;11.51;77.81
55550;BME280;41397;49.972;18.944;2023-11-21T14:43:42;101383.16;;;11.50;77.79
55550;BME280;41397;49.972;18.944;2023-11-21T14:46:48;101386.02;;;11.48;77.98
55550;BME280;41397;49.972;18.944;2023-11-21T14:49:52;101383.41;;;11.47;77.91
55550;BME280;41397;49.972;18.944;2023-11-21T14:53:00;101399.70;;;11.48;78.14
55550;BME280;41397;49.972;18.944;2023-11-21T14:56:07;101396.00;;;11.49;78.27
55550;BME280;41397;49.972;18.944;2023-11-21T14:59:08;101399.59;;;11.50;78.27
55550;BME280;41397;49.972;18.944;2023-11-21T15:02:18;101406.09;;;11.49;78.47
55550;BME280;41397;49.972;18.944;2023-11-21T15:05:33;101403.45;;;11.47;78.25
55550;BME280;41397;49.972;18.944;2023-11-21T15:08:36;101405.18;;;11.48;78.44
55550;BME280;41397;49.972;18.944;2023-11-21T15:11:38;101400.60;;;11.49;78.29
55550;BME280;41397;49.972;18.944;2023-11-21T15:14:48;101411.67;;;11.47;78.32
55550;BME280;41397;49.972;18.944;2023-11-21T15:17:55;101406.32;;;11.46;78.55
55550;BME280;41397;49.972;18.944;2023-11-21T15:20:59;101408.05;;;11.47;78.54
55550;BME280;41397;49.972;18.944;2023-11-21T15:24:01;101413.54;;;11.47;78.65
55550;BME280;41397;49.972;18.944;2023-11-21T15:27:05;101419.88;;;11.47;78.79
55550;BME280;41397;49.972;18.944;2023-11-21T15:30:08;101420.88;;;11.46;78.87
55550;BME280;41397;49.972;18.944;2023-11-21T15:33:10;101417.28;;;11.46;78.76
55550;BME280;41397;49.972;18.944;2023-11-21T15:36:13;101417.14;;;11.47;78.90
55550;BME280;41397;49.972;18.944;2023-11-21T15:39:19;101423.62;;;11.46;79.12
55550;BME280;41397;49.972;18.944;2023-11-21T15:42:26;101425.49;;;11.46;79.27
55550;BME280;41397;49.972;18.944;2023-11-21T15:45:27;101429.44;;;11.42;79.36
55550;BME280;41397;49.972;18.944;2023-11-21T15:48:35;101427.70;;;11.41;79.41
55550;BME280;41397;49.972;18.944;2023-11-21T15:51:45;101423.09;;;11.41;79.65
55550;BME280;41397;49.972;18.944;2023-11-21T15:54:53;101434.14;;;11.40;79.61
55550;BME280;41397;49.972;18.944;2023-11-21T15:57:55;101428.57;;;11.41;79.69
55550;BME280;41397;49.972;18.944;2023-11-21T16:00:56;101424.06;;;11.40;79.86
55550;BME280;41397;49.972;18.944;2023-11-21T16:03:58;101439.52;;;11.41;79.74